Rajbhavan Helipad

IN-0048 · 马哈拉施特拉邦, 印度

罗盘
风向 的 风向 250° 直升机
风: 3 kt, 1 beaufort
0 ft 2.000 4.000 6.000 8.000 10.000
Cloud Cloud
FEW 1.200
Cloud Cloud Cloud Cloud
SCT 1.800
Cloud Cloud
FEW 3.000
Cloud Cloud Cloud Cloud Cloud Cloud Cloud Cloud
OVC 9.000
METAR VAJJ 141230Z 25003KT 2500 BR FEW012 SCT018 FEW030CB OVC090 29/27 Q0998 NOSIG

METAR Rajbhavan Helipad - IN-0048

Rajbhavan Helipad是,印度中的直升机场。 该机场位于纬度18,94265和经度72,79402。 这个机场没有ICAO代码,我们使用IN-0048作为参考。 机场在Mumbai FIR中。

该航空气象观测是针对Juhu Aerodrome在2024年7月14日 18:00, 当地时间进行的。

机场观察

风向为250°,速度为3 kt。

可见度为2,5 km。

有几云在1.200 ft的高度, 疏云,零星散落的云朵在1.800 ft的高度, 几云 积雨云在3.000 ft的高度 和 乌云密布在9.000 ft的高度。 破损或更高的上限为9.000 ft。

当前天气为薄雾。 温度和风寒是29 °C。 热指数为37。 露点为27 °C,相对湿度为89%。 海平面上的气压为998 hPa (QNH)。

白天

今天,太阳从06:09升起,在19:19降落。 这适用于Rajbhavan Helipad,世界夏令时可能有所不同。 当地时间与世界标准时间之间的时差为+5 小时 30 分钟。 夏令时目前正在进行中。

公司介绍

我们没有关于这个机场的公司信息。

体会

到Vliegles.nl去找飞行课程,跳伞和其他飞行体验。 浏览页面,了解Rajbhavan Helipad附近所有可用的活动。 你也可以使用搜索功能来寻找你所在地附近的特定飞行课程、跳伞或其他飞行体验。

乌云

1.200 ft FEW 几云
1.800 ft SCT 疏云,零星散落的云朵
3.000 ft FEW 几云 积雨云
9.000 ft OVC 乌云密布

温度 & 天气

天气 薄雾
温度 29 °C
露点 27 °C
相对湿度 89%
热度指数 37 °C
Kp-index 1 (0-9)

白天

日出
06:09 (9:47)
中午
12:44
日落
19:19

小工具

你想在你的网站上有一个关于Rajbhavan Helipad的当前航空天气(METAR)的小部件吗?

显示HTML代码
报告变更